LTCU

Bingöl Çeltiksuyu

Bingöl, Turkey
TAF LTCU 201340Z 2015/2024 VRB02KT CAVOK
Issued Valid From Valid To
Jan-20 @ 13:40 UTC
(8 hours ago)
Jan-20 @ 15:00 UTC
(6 hours ago)
Jan-21 @ 00:00 UTC
(in 3 hours)
Jan-20 @ 15:00 to Jan-21 @ 00:00
TAF LTCU 201340Z 2015/2024 VRB02KT CAVOK
Wind Visibility Clouds Conditions
Variable at 2 knots 10,000+ meters
  • No significant clouds
TAF LTCU 201340Z 2015/2024 VRB02KT CAVOK
Issued Jan-20 @ 13:40 UTC
(8 hours ago)
Valid From Jan-20 @ 15:00 UTC
(6 hours ago)
Valid To Jan-21 @ 00:00 UTC
(in 3 hours)
Jan-20 @ 15:00 - Jan-21 @ 00:00
Wind Visibility
Variable at 2 knots 10,000+ meters
Clouds
  • No significant clouds
Conditions